createdAt,value
2023-03-03T00:01:07.072Z,12.20
2023-03-03T00:03:35.431Z,12.23
2023-03-03T00:06:05.121Z,11.60
2023-03-03T00:08:33.579Z,11.57
2023-03-03T00:11:03.243Z,13.32
2023-03-03T00:13:32.949Z,12.18
2023-03-03T00:16:17.703Z,11.75
2023-03-03T00:18:47.642Z,15.18
2023-03-03T00:21:29.360Z,12.73
2023-03-03T00:24:13.157Z,13.35
2023-03-03T00:26:43.255Z,11.57
2023-03-03T00:29:36.137Z,14.38
2023-03-03T00:32:27.438Z,14.90
2023-03-03T00:34:57.352Z,14.57
2023-03-03T00:37:31.646Z,14.35
2023-03-03T00:40:20.236Z,14.52
2023-03-03T00:42:52.092Z,12.70
2023-03-03T00:45:28.252Z,17.08
2023-03-03T00:47:59.091Z,15.10
2023-03-03T00:50:32.756Z,14.93
2023-03-03T00:53:04.631Z,15.95
2023-03-03T00:55:33.371Z,15.85
2023-03-03T00:58:01.656Z,17.07
2023-03-03T01:00:29.799Z,15.95
2023-03-03T01:03:03.011Z,16.35
2023-03-03T01:05:31.194Z,15.53
2023-03-03T01:07:59.236Z,17.90
2023-03-03T01:10:29.375Z,19.30
2023-03-03T01:12:58.412Z,19.92
2023-03-03T01:15:26.592Z,16.00
2023-03-03T01:17:55.411Z,16.20
2023-03-03T01:20:24.881Z,15.97
2023-03-03T01:22:52.887Z,15.63
2023-03-03T01:25:20.855Z,16.15
2023-03-03T01:27:49.184Z,14.23
2023-03-03T01:30:17.865Z,13.75
2023-03-03T01:32:45.980Z,15.10
2023-03-03T01:35:14.101Z,14.50
2023-03-03T01:37:43.476Z,14.18
2023-03-03T01:40:16.253Z,13.20
2023-03-03T01:42:44.270Z,14.32
2023-03-03T01:45:16.853Z,11.55
2023-03-03T01:47:49.978Z,13.60
2023-03-03T01:50:29.601Z,12.43
2023-03-03T01:53:00.955Z,12.80
2023-03-03T01:55:33.180Z,12.93
2023-03-03T01:58:06.078Z,14.73
2023-03-03T02:00:37.380Z,10.77
2023-03-03T02:03:06.417Z,9.32
2023-03-03T02:05:36.363Z,10.53
2023-03-03T02:08:06.307Z,11.23
2023-03-03T02:10:34.314Z,10.57
2023-03-03T02:13:02.339Z,11.10
2023-03-03T02:15:32.700Z,10.25
2023-03-03T02:18:04.187Z,10.07
2023-03-03T02:20:44.718Z,11.60
2023-03-03T02:23:22.040Z,9.73
2023-03-03T02:26:02.981Z,12.10
2023-03-03T02:28:33.078Z,10.73
2023-03-03T02:31:02.706Z,9.75
2023-03-03T02:33:30.930Z,10.65
2023-03-03T02:35:59.008Z,10.68
2023-03-03T02:38:29.073Z,9.00
2023-03-03T02:41:04.824Z,10.40
2023-03-03T02:43:40.341Z,9.30
2023-03-03T02:46:08.433Z,10.23
2023-03-03T02:48:36.381Z,10.73
2023-03-03T02:51:04.431Z,10.30
2023-03-03T02:53:32.430Z,13.00
2023-03-03T02:56:00.349Z,11.60
2023-03-03T02:58:29.698Z,15.27
2023-03-03T03:00:57.936Z,15.32
2023-03-03T03:03:26.124Z,16.80
2023-03-03T03:05:54.100Z,15.20
2023-03-03T03:08:22.177Z,16.00
2023-03-03T03:10:50.242Z,16.70
2023-03-03T03:13:18.593Z,16.27
2023-03-03T03:15:48.398Z,18.95
2023-03-03T03:18:17.185Z,20.70
2023-03-03T03:20:46.958Z,20.00
2023-03-03T03:23:16.648Z,19.75
2023-03-03T03:25:46.711Z,16.48
2023-03-03T03:28:15.596Z,19.63
2023-03-03T03:30:45.736Z,17.92
2023-03-03T03:33:15.179Z,19.13
2023-03-03T03:35:45.642Z,19.55
2023-03-03T03:38:14.070Z,19.58
2023-03-03T03:40:42.670Z,16.05
2023-03-03T03:43:10.887Z,18.00
2023-03-03T03:45:38.859Z,16.77
2023-03-03T03:48:07.371Z,15.40
2023-03-03T03:50:37.015Z,16.80
2023-03-03T03:53:05.253Z,15.18
2023-03-03T03:55:33.791Z,16.42
2023-03-03T03:58:01.760Z,16.75
2023-03-03T04:00:29.778Z,17.08
2023-03-03T04:02:57.933Z,17.88
2023-03-03T04:05:26.126Z,13.07
2023-03-03T04:07:55.491Z,16.13
2023-03-03T04:10:23.515Z,19.83
2023-03-03T04:12:51.466Z,20.58
2023-03-03T04:15:19.658Z,20.05
2023-03-03T04:17:47.615Z,18.58
2023-03-03T04:20:16.382Z,19.70
2023-03-03T04:22:45.109Z,19.15
2023-03-03T04:25:16.601Z,19.67
2023-03-03T04:27:45.429Z,22.08
2023-03-03T04:30:15.807Z,21.07
2023-03-03T04:32:43.965Z,17.95
2023-03-03T04:35:12.445Z,19.73
2023-03-03T04:37:40.841Z,17.75
2023-03-03T04:40:11.313Z,19.58
2023-03-03T04:42:40.712Z,18.85
2023-03-03T04:45:09.654Z,15.70
2023-03-03T04:47:37.678Z,17.27
2023-03-03T04:50:06.435Z,16.10
2023-03-03T04:52:34.481Z,15.88
2023-03-03T04:55:02.525Z,18.00
2023-03-03T04:57:30.471Z,20.92
2023-03-03T04:59:59.838Z,15.20
2023-03-03T05:02:27.866Z,19.45
2023-03-03T05:04:55.980Z,16.67
2023-03-03T05:07:24.720Z,15.30
2023-03-03T05:09:52.777Z,19.38
2023-03-03T05:12:21.225Z,18.00
2023-03-03T05:14:49.162Z,18.58
2023-03-03T05:17:18.603Z,18.63
2023-03-03T05:19:46.612Z,22.33
2023-03-03T05:22:14.562Z,19.85
2023-03-03T05:24:43.910Z,17.85
2023-03-03T05:27:11.930Z,19.23
2023-03-03T05:29:39.945Z,18.00
2023-03-03T05:32:08.062Z,19.25
2023-03-03T05:34:37.644Z,19.43
2023-03-03T05:37:06.746Z,19.48
2023-03-03T05:39:35.241Z,18.93
2023-03-03T05:42:03.782Z,18.75
2023-03-03T05:44:31.792Z,21.55
2023-03-03T05:46:59.849Z,20.00
2023-03-03T05:49:27.899Z,20.92
2023-03-03T05:51:57.223Z,21.33
2023-03-03T05:54:25.524Z,19.73
2023-03-03T05:56:53.519Z,17.48
2023-03-03T05:59:21.715Z,21.98
2023-03-03T06:01:49.715Z,21.25
2023-03-03T06:04:17.968Z,20.30
2023-03-03T06:06:45.978Z,18.58
2023-03-03T06:09:16.087Z,18.27
2023-03-03T06:11:44.099Z,16.20
2023-03-03T06:14:12.099Z,17.33
2023-03-03T06:16:40.309Z,18.50
2023-03-03T06:19:08.252Z,17.17
2023-03-03T06:21:36.175Z,17.83
2023-03-03T06:24:04.186Z,17.33
2023-03-03T06:26:34.179Z,17.65
2023-03-03T06:29:02.624Z,18.02
2023-03-03T06:31:30.669Z,18.80
2023-03-03T06:33:58.686Z,19.60
2023-03-03T06:36:27.250Z,18.60
2023-03-03T06:38:55.289Z,16.80
2023-03-03T06:41:23.235Z,16.52
2023-03-03T06:43:52.631Z,17.02
2023-03-03T06:46:20.623Z,18.70
2023-03-03T06:48:48.679Z,19.60
2023-03-03T06:51:26.712Z,19.67
2023-03-03T06:53:56.988Z,17.17
2023-03-03T06:56:26.043Z,16.65
2023-03-03T06:58:58.627Z,21.70
2023-03-03T07:01:26.727Z,18.27
2023-03-03T07:03:55.694Z,18.40
2023-03-03T07:06:25.438Z,18.60
2023-03-03T07:08:53.856Z,19.02
2023-03-03T07:11:23.714Z,19.55
2023-03-03T07:13:53.472Z,18.80
2023-03-03T07:16:27.751Z,20.30
2023-03-03T07:18:56.723Z,20.42
2023-03-03T07:21:27.433Z,18.15
2023-03-03T07:23:55.520Z,19.83
2023-03-03T07:26:30.593Z,19.25
2023-03-03T07:29:01.978Z,19.17
2023-03-03T07:31:37.377Z,18.20
2023-03-03T07:34:18.532Z,20.85
2023-03-03T07:36:47.082Z,19.75
2023-03-03T07:39:31.642Z,18.00
2023-03-03T07:42:19.338Z,18.63
2023-03-03T07:44:53.233Z,17.23
2023-03-03T07:47:26.066Z,19.13
2023-03-03T07:49:55.813Z,19.40
2023-03-03T07:52:38.326Z,18.80
2023-03-03T07:55:28.174Z,17.27
2023-03-03T07:57:59.224Z,19.27
2023-03-03T08:01:12.943Z,17.88
2023-03-03T08:03:46.071Z,18.07
2023-03-03T08:06:59.077Z,18.50
2023-03-03T08:09:44.885Z,16.13
2023-03-03T08:12:28.845Z,15.88
2023-03-03T08:14:59.371Z,15.98
2023-03-03T08:17:36.276Z,17.33
2023-03-03T08:20:25.499Z,17.17
2023-03-03T08:22:53.466Z,18.10
2023-03-03T08:25:21.484Z,17.00
2023-03-03T08:27:49.501Z,14.90
2023-03-03T08:30:18.074Z,16.63
2023-03-03T08:32:46.114Z,15.40
2023-03-03T08:35:15.673Z,16.25
2023-03-03T08:37:43.731Z,16.15
2023-03-03T08:40:12.796Z,15.87
2023-03-03T08:42:40.815Z,16.65
2023-03-03T08:45:09.151Z,18.95
2023-03-03T08:47:37.180Z,14.85
2023-03-03T08:50:05.939Z,14.40
2023-03-03T08:52:35.266Z,15.82
2023-03-03T08:55:03.235Z,14.60
2023-03-03T08:57:31.265Z,17.30
2023-03-03T08:59:59.293Z,19.45
2023-03-03T09:02:27.259Z,12.30
2023-03-03T09:04:55.310Z,15.18
2023-03-03T09:07:23.295Z,13.43
2023-03-03T09:09:52.599Z,15.02
2023-03-03T09:12:26.136Z,15.80
2023-03-03T09:14:54.155Z,16.92
2023-03-03T09:17:29.443Z,13.70
2023-03-03T09:20:00.684Z,12.67
2023-03-03T09:22:29.985Z,14.80
2023-03-03T09:25:02.055Z,13.63
2023-03-03T09:27:31.951Z,13.13
2023-03-03T09:30:03.827Z,12.70
2023-03-03T09:32:35.984Z,12.35
2023-03-03T09:35:36.499Z,13.37
2023-03-03T09:38:22.440Z,13.65
2023-03-03T09:41:09.021Z,11.05
2023-03-03T09:43:42.973Z,11.73
2023-03-03T09:46:19.210Z,9.75
2023-03-03T09:48:59.368Z,11.88
2023-03-03T09:52:05.234Z,10.63
2023-03-03T09:54:54.232Z,10.15
2023-03-03T09:57:30.482Z,10.35
2023-03-03T10:00:13.110Z,9.17
2023-03-03T10:02:55.047Z,7.47
2023-03-03T10:05:36.280Z,11.85
2023-03-03T10:08:19.872Z,6.90
2023-03-03T10:10:57.892Z,8.80
2023-03-03T10:13:42.223Z,10.13
2023-03-03T10:16:32.370Z,8.03
2023-03-03T10:19:04.046Z,8.02
2023-03-03T10:21:38.193Z,8.25
2023-03-03T10:24:20.743Z,8.27
2023-03-03T10:27:13.590Z,11.75
2023-03-03T10:29:54.702Z,10.43
2023-03-03T10:32:45.579Z,8.50
2023-03-03T10:35:34.342Z,9.25
2023-03-03T10:38:22.420Z,8.60
2023-03-03T10:40:57.065Z,10.02
2023-03-03T10:43:46.809Z,6.95
2023-03-03T10:46:39.547Z,12.37
2023-03-03T10:49:22.388Z,6.90
2023-03-03T10:52:07.532Z,6.93
2023-03-03T10:54:53.004Z,4.80
2023-03-03T10:57:30.352Z,6.30
2023-03-03T11:00:09.322Z,6.28
2023-03-03T11:02:48.535Z,5.28
2023-03-03T11:05:30.342Z,8.57
2023-03-03T11:08:03.260Z,6.55
2023-03-03T11:10:52.030Z,7.00
2023-03-03T11:13:26.503Z,6.15
2023-03-03T11:16:15.924Z,6.45
2023-03-03T11:18:58.193Z,4.60
2023-03-03T11:21:34.164Z,8.13
2023-03-03T11:24:14.013Z,5.15
2023-03-03T11:27:09.913Z,4.88
2023-03-03T11:29:54.900Z,5.28
2023-03-03T11:32:34.155Z,4.27
2023-03-03T11:35:19.447Z,4.53
2023-03-03T11:37:58.252Z,2.90
2023-03-03T11:40:29.743Z,5.72
2023-03-03T11:43:05.090Z,5.00
2023-03-03T11:45:40.820Z,4.88
2023-03-03T11:48:17.908Z,5.72
2023-03-03T11:50:56.458Z,2.95
2023-03-03T11:53:35.892Z,3.38
2023-03-03T11:56:16.170Z,3.10
2023-03-03T11:58:47.976Z,2.80
2023-03-03T12:01:23.627Z,2.60
2023-03-03T12:03:57.655Z,3.38
2023-03-03T12:06:34.260Z,3.38
2023-03-03T12:09:18.668Z,3.57
2023-03-03T12:11:54.067Z,3.30
2023-03-03T12:14:36.573Z,3.87
2023-03-03T12:17:11.387Z,7.57
2023-03-03T12:19:49.304Z,2.80
2023-03-03T12:22:34.748Z,2.08
2023-03-03T12:25:23.659Z,3.15
2023-03-03T12:27:57.502Z,2.80
2023-03-03T12:30:40.936Z,2.67
2023-03-03T12:33:19.338Z,2.25
2023-03-03T12:35:55.905Z,3.47
2023-03-03T12:38:36.130Z,2.83
2023-03-03T12:41:10.351Z,2.58
2023-03-03T12:43:56.134Z,4.68
2023-03-03T12:46:30.681Z,3.67
2023-03-03T12:48:58.717Z,3.70
2023-03-03T12:51:38.710Z,2.38
2023-03-03T12:54:36.973Z,5.00
2023-03-03T12:57:16.016Z,3.13
2023-03-03T12:59:51.784Z,3.75
2023-03-03T13:02:47.730Z,3.90
2023-03-03T13:05:24.678Z,5.57
2023-03-03T13:08:06.380Z,3.20
2023-03-03T13:10:42.951Z,3.70
2023-03-03T13:13:17.897Z,4.70
2023-03-03T13:16:01.038Z,3.13
2023-03-03T13:18:38.841Z,3.33
2023-03-03T13:21:12.030Z,2.60
2023-03-03T13:23:48.548Z,3.03
2023-03-03T13:26:23.778Z,3.80
2023-03-03T13:29:00.761Z,3.70
2023-03-03T13:31:34.152Z,2.50
2023-03-03T13:34:03.089Z,4.55
2023-03-03T13:36:35.982Z,2.88
2023-03-03T13:39:15.397Z,3.93
2023-03-03T13:41:50.640Z,2.15
2023-03-03T13:44:24.371Z,2.58
2023-03-03T13:47:04.401Z,4.40
2023-03-03T13:49:47.670Z,4.10
2023-03-03T13:52:22.307Z,5.38
2023-03-03T13:55:06.595Z,3.60
2023-03-03T13:57:59.968Z,1.85
2023-03-03T14:00:53.433Z,2.97
2023-03-03T14:03:37.161Z,2.08
2023-03-03T14:06:07.218Z,2.83
2023-03-03T14:08:56.058Z,4.30
2023-03-03T14:11:27.973Z,1.70
2023-03-03T14:14:05.992Z,2.35
2023-03-03T14:16:44.594Z,2.80
2023-03-03T14:19:18.233Z,2.30
2023-03-03T14:21:54.016Z,2.17
2023-03-03T14:24:25.284Z,1.83
2023-03-03T14:26:55.326Z,3.28
2023-03-03T14:29:32.557Z,3.15
2023-03-03T14:32:02.517Z,4.53
2023-03-03T14:34:37.409Z,3.10
2023-03-03T14:37:27.100Z,3.90
2023-03-03T14:40:27.565Z,3.50
2023-03-03T14:42:58.839Z,3.35
2023-03-03T14:45:36.118Z,3.05
2023-03-03T14:48:15.865Z,4.95
2023-03-03T14:50:49.637Z,4.40
2023-03-03T14:53:23.926Z,4.23
2023-03-03T14:55:53.845Z,4.60
2023-03-03T14:58:31.209Z,2.80
2023-03-03T15:01:14.065Z,5.05
2023-03-03T15:03:49.193Z,4.10
2023-03-03T15:06:31.572Z,2.70
2023-03-03T15:09:26.575Z,3.28
2023-03-03T15:11:56.026Z,3.10
2023-03-03T15:14:30.924Z,4.90
2023-03-03T15:17:20.270Z,4.13
2023-03-03T15:19:55.485Z,5.53
2023-03-03T15:22:48.255Z,6.20
2023-03-03T15:25:42.808Z,5.53
2023-03-03T15:28:27.813Z,4.50
2023-03-03T15:31:02.750Z,3.38
2023-03-03T15:33:38.731Z,3.05
2023-03-03T15:36:15.124Z,4.18
2023-03-03T15:38:57.001Z,3.08
2023-03-03T15:41:41.946Z,3.30
2023-03-03T15:44:22.072Z,2.92
2023-03-03T15:47:13.046Z,3.22
2023-03-03T15:49:58.330Z,3.38
2023-03-03T15:52:39.451Z,5.00
2023-03-03T15:55:33.352Z,4.50
2023-03-03T15:58:21.110Z,3.17
2023-03-03T16:01:02.126Z,4.93
2023-03-03T16:03:36.420Z,5.38
2023-03-03T16:06:12.076Z,4.18
2023-03-03T16:08:50.441Z,3.80
2023-03-03T16:11:24.221Z,3.03
2023-03-03T16:14:05.006Z,4.30
2023-03-03T16:16:44.155Z,2.80
2023-03-03T16:19:25.876Z,7.35
2023-03-03T16:22:17.270Z,5.85
2023-03-03T16:25:00.206Z,6.93
2023-03-03T16:27:35.415Z,4.20
2023-03-03T16:30:15.753Z,3.83
2023-03-03T16:32:48.724Z,5.03
2023-03-03T16:35:23.352Z,9.45
2023-03-03T16:37:59.606Z,5.25
2023-03-03T16:40:32.886Z,4.90
2023-03-03T16:43:11.079Z,5.78
2023-03-03T16:45:41.286Z,7.57
2023-03-03T16:48:22.243Z,7.47
2023-03-03T16:50:58.794Z,5.80
2023-03-03T16:53:53.810Z,4.60
2023-03-03T16:56:25.196Z,13.48
2023-03-03T16:59:11.419Z,8.13
2023-03-03T17:01:50.781Z,8.90
2023-03-03T17:04:35.914Z,8.05
2023-03-03T17:07:13.006Z,8.82
2023-03-03T17:10:06.849Z,10.23
2023-03-03T17:12:51.021Z,8.88
2023-03-03T17:15:30.355Z,11.30
2023-03-03T17:18:09.403Z,10.82
2023-03-03T17:20:45.635Z,7.75
2023-03-03T17:23:40.605Z,12.82
2023-03-03T17:26:24.142Z,12.05
2023-03-03T17:29:05.320Z,6.97
2023-03-03T17:31:40.935Z,8.97
2023-03-03T17:34:25.018Z,12.55
2023-03-03T17:37:04.760Z,15.07
2023-03-03T17:39:53.820Z,13.50
2023-03-03T17:42:33.075Z,17.40
2023-03-03T17:45:07.635Z,11.82
2023-03-03T17:47:54.444Z,14.52
2023-03-03T17:50:36.466Z,14.05
2023-03-03T17:53:27.740Z,14.73
2023-03-03T17:56:04.588Z,17.95
2023-03-03T17:58:53.140Z,13.50
2023-03-03T18:01:38.831Z,21.75
2023-03-03T18:04:17.924Z,13.15
2023-03-03T18:07:12.749Z,13.80
2023-03-03T18:09:51.051Z,15.85
2023-03-03T18:12:27.983Z,12.27
2023-03-03T18:15:28.950Z,15.73
2023-03-03T18:18:06.898Z,16.50
2023-03-03T18:21:01.003Z,14.15
2023-03-03T18:23:39.809Z,16.48
2023-03-03T18:26:41.435Z,12.90
2023-03-03T18:29:24.170Z,13.67
2023-03-03T18:32:19.675Z,17.58
2023-03-03T18:34:47.892Z,18.20
2023-03-03T18:37:40.150Z,17.52
2023-03-03T18:40:29.075Z,17.33
2023-03-03T18:42:57.095Z,16.23
2023-03-03T18:45:51.626Z,13.27
2023-03-03T18:48:41.147Z,21.33
2023-03-03T18:51:09.617Z,17.33
2023-03-03T18:53:38.075Z,16.20
2023-03-03T18:56:13.136Z,20.10
2023-03-03T18:58:41.988Z,15.30
2023-03-03T19:01:41.773Z,14.93
2023-03-03T19:04:25.398Z,18.33
2023-03-03T19:07:26.708Z,14.10
2023-03-03T19:10:01.762Z,15.40
2023-03-03T19:13:00.440Z,13.63
2023-03-03T19:15:51.896Z,11.90
2023-03-03T19:18:23.626Z,16.83
2023-03-03T19:20:56.942Z,14.40
2023-03-03T19:23:32.492Z,10.63
2023-03-03T19:26:37.176Z,18.50
2023-03-03T19:29:14.511Z,11.53
2023-03-03T19:31:48.255Z,13.00
2023-03-03T19:34:24.089Z,11.70
2023-03-03T19:37:02.209Z,11.43
2023-03-03T19:39:51.686Z,13.47
2023-03-03T19:42:30.957Z,16.60
2023-03-03T19:45:11.799Z,14.85
2023-03-03T19:47:45.851Z,12.30
2023-03-03T19:50:30.726Z,13.48
2023-03-03T19:53:07.381Z,13.45
2023-03-03T19:55:45.491Z,10.77
2023-03-03T19:58:23.726Z,13.70
2023-03-03T20:00:58.316Z,11.77
2023-03-03T20:04:02.179Z,14.27
2023-03-03T20:06:38.852Z,15.30
2023-03-03T20:09:20.752Z,13.63
2023-03-03T20:12:03.996Z,15.70
2023-03-03T20:14:46.062Z,11.07
2023-03-03T20:17:38.695Z,13.33
2023-03-03T20:20:22.360Z,17.70
2023-03-03T20:23:02.385Z,11.27
2023-03-03T20:25:37.299Z,14.90
2023-03-03T20:28:15.019Z,18.15
2023-03-03T20:31:03.901Z,14.77
2023-03-03T20:33:46.160Z,15.32
2023-03-03T20:36:25.637Z,15.95
2023-03-03T20:39:04.296Z,16.20
2023-03-03T20:41:45.929Z,15.70
2023-03-03T20:44:25.673Z,13.73
2023-03-03T20:47:02.423Z,18.00
2023-03-03T20:49:46.058Z,12.63
2023-03-03T20:52:21.267Z,14.07
2023-03-03T20:54:55.921Z,14.90
2023-03-03T20:57:34.041Z,18.37
2023-03-03T21:00:06.195Z,12.48
2023-03-03T21:02:43.464Z,12.68
2023-03-03T21:05:14.760Z,16.23
2023-03-03T21:07:53.487Z,12.98
2023-03-03T21:10:24.265Z,14.48
2023-03-03T21:12:54.280Z,15.73
2023-03-03T21:15:29.447Z,11.65
2023-03-03T21:17:58.711Z,16.35
2023-03-03T21:20:30.646Z,16.48
2023-03-03T21:23:00.141Z,17.52
2023-03-03T21:25:45.950Z,13.52
2023-03-03T21:28:17.233Z,13.85
2023-03-03T21:31:08.922Z,12.07
2023-03-03T21:33:41.620Z,12.57
2023-03-03T21:36:10.370Z,17.58
2023-03-03T21:38:40.016Z,18.98
2023-03-03T21:41:08.916Z,16.88
2023-03-03T21:43:40.062Z,16.20
2023-03-03T21:46:08.513Z,12.43
2023-03-03T21:48:36.539Z,15.32
2023-03-03T21:51:04.682Z,16.05
2023-03-03T21:53:32.667Z,16.08
2023-03-03T21:56:00.695Z,15.47
2023-03-03T21:58:28.744Z,17.70
2023-03-03T22:00:58.196Z,23.25
2023-03-03T22:03:26.954Z,12.38
2023-03-03T22:05:54.890Z,13.77
2023-03-03T22:08:23.637Z,13.10
2023-03-03T22:10:55.864Z,12.95
2023-03-03T22:13:25.278Z,17.77
2023-03-03T22:15:54.008Z,16.63
2023-03-03T22:18:23.464Z,15.93
2023-03-03T22:20:51.575Z,13.63
2023-03-03T22:23:19.942Z,13.48
2023-03-03T22:25:47.948Z,14.57
2023-03-03T22:28:16.010Z,13.52
2023-03-03T22:30:44.101Z,15.80
2023-03-03T22:33:12.200Z,15.20
2023-03-03T22:35:41.627Z,15.25
2023-03-03T22:38:09.609Z,11.75
2023-03-03T22:40:37.553Z,16.55
2023-03-03T22:43:06.423Z,17.10
2023-03-03T22:45:34.813Z,13.88
2023-03-03T22:48:02.825Z,10.90
2023-03-03T22:50:30.813Z,15.38
2023-03-03T22:53:00.158Z,18.35
2023-03-03T22:55:29.278Z,16.70
2023-03-03T22:57:57.278Z,14.45
2023-03-03T23:00:25.389Z,18.20
2023-03-03T23:02:53.469Z,18.17
2023-03-03T23:05:21.644Z,15.55
2023-03-03T23:07:49.687Z,12.25
2023-03-03T23:10:19.454Z,15.82
2023-03-03T23:12:47.410Z,13.85
2023-03-03T23:15:16.241Z,18.13
2023-03-03T23:17:46.372Z,10.68
2023-03-03T23:20:16.174Z,16.48
2023-03-03T23:22:44.332Z,14.88
2023-03-03T23:25:13.789Z,17.27
2023-03-03T23:27:43.740Z,13.13
2023-03-03T23:30:14.446Z,11.27
2023-03-03T23:32:42.444Z,13.52
2023-03-03T23:35:11.278Z,15.30
2023-03-03T23:37:39.389Z,14.70
2023-03-03T23:40:08.750Z,12.93
2023-03-03T23:42:36.746Z,15.23
2023-03-03T23:45:07.311Z,8.53
2023-03-03T23:47:35.349Z,13.25
2023-03-03T23:50:03.439Z,10.32
2023-03-03T23:52:31.384Z,11.10
2023-03-03T23:54:59.342Z,11.65
2023-03-03T23:57:27.352Z,13.40
2023-03-03T23:59:55.351Z,13.45
